createdAt,value
2018-04-13T00:01:48.412Z,15.43
2018-04-13T00:04:16.127Z,14.13
2018-04-13T00:06:47.838Z,13.90
2018-04-13T00:09:15.545Z,14.77
2018-04-13T00:11:44.221Z,14.67
2018-04-13T00:14:11.942Z,14.23
2018-04-13T00:16:42.657Z,15.07
2018-04-13T00:19:10.374Z,15.53
2018-04-13T00:21:39.634Z,13.00
2018-04-13T00:24:07.754Z,15.17
2018-04-13T00:26:41.400Z,15.03
2018-04-13T00:29:09.111Z,20.50
2018-04-13T00:34:33.884Z,14.63
2018-04-13T00:37:01.979Z,16.47
2018-04-13T00:39:31.654Z,16.30
2018-04-13T00:41:59.333Z,19.30
2018-04-13T00:44:28.124Z,16.77
2018-04-13T00:46:55.790Z,16.73
2018-04-13T00:49:36.020Z,19.27
2018-04-13T00:52:04.076Z,16.57
2018-04-13T00:54:42.868Z,18.13
2018-04-13T00:57:11.312Z,17.27
2018-04-13T00:59:48.244Z,14.67
2018-04-13T01:02:15.958Z,17.20
2018-04-13T01:04:45.048Z,16.73
2018-04-13T01:07:13.771Z,19.33
2018-04-13T01:09:41.832Z,17.90
2018-04-13T01:12:10.261Z,26.53
2018-04-13T01:14:38.787Z,20.20
2018-04-13T01:20:05.051Z,16.30
2018-04-13T01:22:33.467Z,19.60
2018-04-13T01:25:03.125Z,21.13
2018-04-13T01:27:31.223Z,17.30
2018-04-13T01:29:59.405Z,18.83
2018-04-13T01:32:27.860Z,19.30
2018-04-13T01:34:59.638Z,24.87
2018-04-13T01:37:27.285Z,17.73
2018-04-13T01:39:55.751Z,18.87
2018-04-13T01:42:24.634Z,27.20
2018-04-13T01:44:53.307Z,25.33
2018-04-13T01:47:20.984Z,24.47
2018-04-13T01:49:51.146Z,26.37
2018-04-13T01:52:19.617Z,25.77
2018-04-13T01:54:47.355Z,30.80
2018-04-13T01:57:15.769Z,26.47
2018-04-13T02:00:01.341Z,25.37
2018-04-13T02:02:29.390Z,27.50
2018-04-13T02:05:04.101Z,27.03
2018-04-13T02:07:32.539Z,24.57
2018-04-13T02:10:00.299Z,26.13
2018-04-13T02:12:28.730Z,24.30
2018-04-13T02:15:02.199Z,27.40
2018-04-13T02:17:30.423Z,23.03
2018-04-13T02:20:08.680Z,26.17
2018-04-13T02:22:36.840Z,24.40
2018-04-13T02:25:26.319Z,28.97
2018-04-13T02:27:54.037Z,25.20
2018-04-13T02:30:29.776Z,25.93
2018-04-13T02:32:58.260Z,27.63
2018-04-13T02:35:34.789Z,27.47
2018-04-13T02:38:02.508Z,21.67
2018-04-13T02:40:39.308Z,20.57
2018-04-13T02:43:07.022Z,25.37
2018-04-13T02:45:36.498Z,24.63
2018-04-13T02:48:04.192Z,19.43
2018-04-13T02:50:32.878Z,19.20
2018-04-13T02:53:00.989Z,25.53
2018-04-13T02:55:29.124Z,25.03
2018-04-13T02:57:57.579Z,22.03
2018-04-13T03:00:29.186Z,18.57
2018-04-13T03:02:56.888Z,21.37
2018-04-13T03:05:26.589Z,21.20
2018-04-13T03:07:55.050Z,25.53
2018-04-13T03:10:24.488Z,28.53
2018-04-13T03:12:52.632Z,28.13
2018-04-13T03:15:21.098Z,25.70
2018-04-13T03:17:49.222Z,26.70
2018-04-13T03:20:16.899Z,25.40
2018-04-13T03:22:44.546Z,29.10
2018-04-13T03:25:17.020Z,26.43
2018-04-13T03:27:44.813Z,26.60
2018-04-13T03:30:16.757Z,30.43
2018-04-13T03:32:45.245Z,24.10
2018-04-13T03:35:15.686Z,24.57
2018-04-13T03:37:43.813Z,29.70
2018-04-13T03:40:16.280Z,24.53
2018-04-13T03:42:44.005Z,28.97
2018-04-13T03:45:12.664Z,25.00
2018-04-13T03:47:41.111Z,27.57
2018-04-13T03:50:09.922Z,26.77
2018-04-13T03:52:37.718Z,28.67
2018-04-13T03:55:05.800Z,32.37
2018-04-13T03:57:33.866Z,30.57
2018-04-13T04:00:06.974Z,28.40
2018-04-13T04:02:35.461Z,28.43
2018-04-13T04:05:03.183Z,35.87
2018-04-13T04:07:31.655Z,28.83
2018-04-13T04:09:59.797Z,29.60
2018-04-13T04:12:27.494Z,27.80
2018-04-13T04:14:56.352Z,22.73
2018-04-13T04:17:24.014Z,24.43
2018-04-13T04:20:04.961Z,25.27
2018-04-13T04:25:39.195Z,28.47
2018-04-13T04:28:07.316Z,23.37
2018-04-13T04:30:49.978Z,29.47
2018-04-13T04:33:18.553Z,25.40
2018-04-13T04:36:02.802Z,26.20
2018-04-13T04:38:30.505Z,28.83
2018-04-13T04:41:08.672Z,29.13
2018-04-13T04:43:37.278Z,27.27
2018-04-13T04:46:08.853Z,31.70
2018-04-13T04:48:37.486Z,27.67
2018-04-13T04:51:26.614Z,29.33
2018-04-13T04:53:54.447Z,30.00
2018-04-13T04:56:26.365Z,30.83
2018-04-13T04:58:54.903Z,30.87
2018-04-13T05:01:23.686Z,28.33
2018-04-13T05:03:51.391Z,33.03
2018-04-13T05:06:19.891Z,31.50
2018-04-13T05:08:47.551Z,29.37
2018-04-13T05:11:24.316Z,32.37
2018-04-13T05:13:52.814Z,28.17
2018-04-13T05:16:30.510Z,29.47
2018-04-13T05:18:58.591Z,29.90
2018-04-13T05:21:28.118Z,27.90
2018-04-13T05:23:55.898Z,31.63
2018-04-13T05:26:29.506Z,23.57
2018-04-13T05:28:57.155Z,26.17
2018-04-13T05:31:44.877Z,22.10
2018-04-13T05:34:12.663Z,27.23
2018-04-13T05:36:46.178Z,23.37
2018-04-13T05:39:14.771Z,23.37
2018-04-13T05:41:45.283Z,20.70
2018-04-13T05:44:12.932Z,22.37
2018-04-13T05:49:46.787Z,21.03
2018-04-13T05:52:15.234Z,20.20
2018-04-13T05:54:59.542Z,20.17
2018-04-13T05:57:27.659Z,27.30
2018-04-13T05:59:58.818Z,24.17
2018-04-13T06:02:26.524Z,24.87
2018-04-13T06:10:45.759Z,27.77
2018-04-13T06:13:14.836Z,22.40
2018-04-13T06:15:53.944Z,27.30
2018-04-13T06:18:21.690Z,24.90
2018-04-13T06:23:42.908Z,19.23
2018-04-13T06:26:10.673Z,20.57
2018-04-13T06:29:02.214Z,22.87
2018-04-13T06:31:29.954Z,21.93
2018-04-13T06:33:59.444Z,23.63
2018-04-13T06:36:27.208Z,23.73
2018-04-13T06:38:55.907Z,17.27
2018-04-13T06:41:23.651Z,23.77
2018-04-13T06:43:57.076Z,18.67
2018-04-13T06:46:25.198Z,18.80
2018-04-13T06:49:09.732Z,18.73
2018-04-13T06:51:38.277Z,23.40
2018-04-13T06:57:12.208Z,22.07
2018-04-13T06:59:39.955Z,20.60
2018-04-13T07:02:28.583Z,22.77
2018-04-13T07:04:56.246Z,19.67
2018-04-13T07:07:31.739Z,21.60
2018-04-13T07:10:00.212Z,19.90
2018-04-13T07:15:23.260Z,25.03
2018-04-13T07:17:51.481Z,24.13
2018-04-13T07:20:19.169Z,22.13
2018-04-13T07:22:46.890Z,22.23
2018-04-13T07:25:37.609Z,21.17
2018-04-13T07:28:06.095Z,23.33
2018-04-13T07:30:38.267Z,21.87
2018-04-13T07:33:06.410Z,26.87
2018-04-13T07:35:42.179Z,29.33
2018-04-13T07:38:09.337Z,28.87
2018-04-13T07:40:45.498Z,29.47
2018-04-13T07:43:14.115Z,30.00
2018-04-13T07:45:44.615Z,34.77
2018-04-13T07:48:12.343Z,27.40
2018-04-13T07:50:46.554Z,26.43
2018-04-13T07:53:14.273Z,28.50
2018-04-13T07:55:42.345Z,27.83
2018-04-13T07:58:10.029Z,31.80
2018-04-13T08:00:48.096Z,26.90
2018-04-13T08:03:16.514Z,26.50
2018-04-13T08:11:48.165Z,26.13
2018-04-13T08:14:15.877Z,29.60
2018-04-13T08:16:58.557Z,28.10
2018-04-13T08:19:26.235Z,28.20
2018-04-13T08:27:57.581Z,28.33
2018-04-13T08:30:26.058Z,26.60
2018-04-13T08:33:01.638Z,29.90
2018-04-13T08:35:29.302Z,28.60
2018-04-13T08:38:02.946Z,28.60
2018-04-13T08:40:30.691Z,28.67
2018-04-13T08:43:11.461Z,33.33
2018-04-13T08:45:39.181Z,30.43
2018-04-13T08:51:04.437Z,33.10
2018-04-13T08:53:32.101Z,33.93
2018-04-13T08:56:01.842Z,33.27
2018-04-13T08:58:29.675Z,31.93
2018-04-13T09:01:11.787Z,31.20
2018-04-13T09:03:39.537Z,33.13
2018-04-13T09:06:11.296Z,34.70
2018-04-13T09:08:39.002Z,34.73
2018-04-13T09:11:11.599Z,33.03
2018-04-13T09:13:39.283Z,32.07
2018-04-13T09:19:15.184Z,38.60
2018-04-13T09:21:43.669Z,34.50
2018-04-13T09:27:04.977Z,32.43
2018-04-13T09:29:32.661Z,35.43
2018-04-13T09:32:11.477Z,35.53
2018-04-13T09:34:39.274Z,33.13
2018-04-13T09:37:13.917Z,31.13
2018-04-13T09:39:43.041Z,33.43
2018-04-13T09:42:24.301Z,29.40
2018-04-13T09:44:52.140Z,33.53
2018-04-13T09:47:32.265Z,28.90
2018-04-13T09:49:59.952Z,32.33
2018-04-13T09:52:50.994Z,31.20
2018-04-13T09:55:18.645Z,27.30
2018-04-13T09:57:50.429Z,31.20
2018-04-13T10:00:23.750Z,34.43
2018-04-13T10:02:58.100Z,35.23
2018-04-13T10:05:40.131Z,37.37
2018-04-13T10:08:08.371Z,37.97
2018-04-13T10:16:22.457Z,47.73
2018-04-13T10:18:51.037Z,48.93
2018-04-13T10:21:37.905Z,49.27
2018-04-13T10:24:05.606Z,53.30
2018-04-13T10:26:41.690Z,51.87
2018-04-13T10:29:09.401Z,53.47
2018-04-13T10:31:37.627Z,51.20
2018-04-13T10:34:05.282Z,51.27
2018-04-13T10:36:46.637Z,48.77
2018-04-13T10:39:14.309Z,52.70
2018-04-13T10:41:56.756Z,52.83
2018-04-13T10:44:24.500Z,60.43
2018-04-13T10:47:10.193Z,58.80
2018-04-13T10:49:37.944Z,61.30
2018-04-13T10:52:06.046Z,62.47
2018-04-13T10:54:33.956Z,65.47
2018-04-13T10:57:15.159Z,66.57
2018-04-13T10:59:43.679Z,69.77
2018-04-13T11:02:26.589Z,66.40
2018-04-13T11:04:54.394Z,75.07
2018-04-13T11:07:23.070Z,78.63
2018-04-13T11:09:50.797Z,74.57
2018-04-13T11:12:18.516Z,77.20
2018-04-13T11:14:46.252Z,78.20
2018-04-13T11:17:13.951Z,84.07
2018-04-13T11:19:42.088Z,79.13
2018-04-13T11:22:09.835Z,79.23
2018-04-13T11:24:37.555Z,71.53
2018-04-13T11:27:16.860Z,76.30
2018-04-13T11:29:44.528Z,74.30
2018-04-13T11:32:19.960Z,79.73
2018-04-13T11:34:48.077Z,77.93
2018-04-13T11:43:09.060Z,61.90
2018-04-13T11:45:36.788Z,65.23
2018-04-13T11:48:15.223Z,60.43
2018-04-13T11:50:42.906Z,60.27
2018-04-13T11:53:18.410Z,62.37
2018-04-13T11:55:46.947Z,71.80
2018-04-13T11:58:25.160Z,78.83
2018-04-13T12:00:52.969Z,77.93
2018-04-13T12:03:28.478Z,72.70
2018-04-13T12:05:56.216Z,76.23
2018-04-13T12:11:30.211Z,68.50
2018-04-13T12:13:58.346Z,64.47
2018-04-13T12:16:31.064Z,60.47
2018-04-13T12:18:58.796Z,52.93
2018-04-13T12:21:34.337Z,55.07
2018-04-13T12:24:02.373Z,56.97
2018-04-13T12:26:34.656Z,64.33
2018-04-13T12:29:02.386Z,70.87
2018-04-13T12:31:34.052Z,72.00
2018-04-13T12:34:01.773Z,67.93
2018-04-13T12:36:31.229Z,67.70
2018-04-13T12:38:59.648Z,68.23
2018-04-13T12:41:27.320Z,62.83
2018-04-13T12:43:56.613Z,63.03
2018-04-13T12:46:34.601Z,60.33
2018-04-13T12:49:02.413Z,61.93
2018-04-13T12:51:34.321Z,63.30
2018-04-13T12:54:02.146Z,68.50
2018-04-13T12:56:29.966Z,60.50
2018-04-13T12:58:58.041Z,59.17
2018-04-13T13:01:42.503Z,58.70
2018-04-13T13:04:10.306Z,50.73
2018-04-13T13:06:51.168Z,48.93
2018-04-13T13:09:18.872Z,51.13
2018-04-13T13:12:04.586Z,47.53
2018-04-13T13:14:32.233Z,45.37
2018-04-13T13:17:01.472Z,45.93
2018-04-13T13:19:29.948Z,52.40
2018-04-13T13:22:05.278Z,53.27
2018-04-13T13:24:34.489Z,51.30
2018-04-13T13:27:02.250Z,51.23
2018-04-13T13:29:29.949Z,49.80
2018-04-13T13:32:03.549Z,42.13
2018-04-13T13:34:31.572Z,42.83
2018-04-13T13:37:01.086Z,46.83
2018-04-13T13:39:29.131Z,45.57
2018-04-13T13:41:56.869Z,39.87
2018-04-13T13:44:24.538Z,45.70
2018-04-13T13:46:55.741Z,40.00
2018-04-13T13:49:23.854Z,39.30
2018-04-13T13:51:56.993Z,41.53
2018-04-13T13:54:24.705Z,39.47
2018-04-13T13:56:57.148Z,43.17
2018-04-13T13:59:24.834Z,44.30
2018-04-13T14:02:00.537Z,46.83
2018-04-13T14:04:28.998Z,48.00
2018-04-13T14:07:02.841Z,48.83
2018-04-13T14:09:30.486Z,45.57
2018-04-13T14:12:03.442Z,49.03
2018-04-13T14:14:31.202Z,49.30
2018-04-13T14:17:04.258Z,47.40
2018-04-13T14:19:31.999Z,53.47
2018-04-13T14:22:03.577Z,51.07
2018-04-13T14:24:32.201Z,48.57
2018-04-13T14:27:07.686Z,49.17
2018-04-13T14:29:35.395Z,47.70
2018-04-13T14:34:58.713Z,46.03
2018-04-13T14:37:27.238Z,44.97
2018-04-13T14:39:58.230Z,41.10
2018-04-13T14:42:26.734Z,47.23
2018-04-13T14:44:57.831Z,49.63
2018-04-13T14:47:26.309Z,52.23
2018-04-13T14:49:54.120Z,53.80
2018-04-13T14:52:21.888Z,52.13
2018-04-13T14:54:49.767Z,54.13
2018-04-13T14:57:17.725Z,49.77
2018-04-13T14:59:46.281Z,54.30
2018-04-13T15:02:14.072Z,58.23
2018-04-13T15:04:42.115Z,56.47
2018-04-13T15:07:20.896Z,56.67
2018-04-13T15:09:48.905Z,55.70
2018-04-13T15:12:21.114Z,56.80
2018-04-13T15:14:49.595Z,54.20
2018-04-13T15:17:40.766Z,54.30
2018-04-13T15:20:08.499Z,54.23
2018-04-13T15:22:37.867Z,52.60
2018-04-13T15:25:05.632Z,44.87
2018-04-13T15:27:45.440Z,48.70
2018-04-13T15:30:14.734Z,44.47
2018-04-13T15:32:45.275Z,39.80
2018-04-13T15:35:13.413Z,42.37
2018-04-13T15:37:46.948Z,48.47
2018-04-13T15:40:15.498Z,41.17
2018-04-13T15:42:59.992Z,44.33
2018-04-13T15:45:27.768Z,47.53
2018-04-13T15:47:59.010Z,46.30
2018-04-13T15:50:26.770Z,47.77
2018-04-13T15:53:07.848Z,49.23
2018-04-13T15:55:35.952Z,48.60
2018-04-13T15:58:05.379Z,49.90
2018-04-13T16:00:33.144Z,49.30
2018-04-13T16:03:12.756Z,46.67
2018-04-13T16:05:40.866Z,59.20
2018-04-13T16:08:26.408Z,45.37
2018-04-13T16:10:54.125Z,37.77
2018-04-13T16:13:24.751Z,29.27
2018-04-13T16:15:53.244Z,38.37
2018-04-13T16:18:30.293Z,33.60
2018-04-13T16:20:58.812Z,36.30
2018-04-13T16:26:23.806Z,30.53
2018-04-13T16:28:51.556Z,31.00
2018-04-13T16:31:28.833Z,29.20
2018-04-13T16:33:57.917Z,29.07
2018-04-13T16:36:28.037Z,31.97
2018-04-13T16:38:55.747Z,28.23
2018-04-13T16:41:36.369Z,47.73
2018-04-13T16:44:04.918Z,29.13
2018-04-13T16:46:32.634Z,50.60
2018-04-13T16:49:01.176Z,22.93
2018-04-13T16:51:29.878Z,20.53
2018-04-13T16:53:58.334Z,23.83
2018-04-13T16:56:36.365Z,23.37
2018-04-13T16:59:04.069Z,25.13
2018-04-13T17:01:33.264Z,28.80
2018-04-13T17:04:01.404Z,21.37
2018-04-13T17:06:31.163Z,23.70
2018-04-13T17:08:59.238Z,17.97
2018-04-13T17:11:31.441Z,22.47
2018-04-13T17:13:59.975Z,20.53
2018-04-13T17:16:34.089Z,18.40
2018-04-13T17:19:03.017Z,17.53
2018-04-13T17:21:33.768Z,19.73
2018-04-13T17:24:02.364Z,17.83
2018-04-13T17:26:30.242Z,16.17
2018-04-13T17:28:57.984Z,17.93
2018-04-13T17:31:26.369Z,17.33
2018-04-13T17:33:54.185Z,19.20
2018-04-13T17:36:29.632Z,19.33
2018-04-13T17:38:57.360Z,21.00
2018-04-13T17:41:26.033Z,21.67
2018-04-13T17:43:53.723Z,22.70
2018-04-13T17:46:24.058Z,20.23
2018-04-13T17:48:52.545Z,24.07
2018-04-13T17:51:25.026Z,24.10
2018-04-13T17:53:52.750Z,23.07
2018-04-13T17:56:43.786Z,24.67
2018-04-13T17:59:11.460Z,24.53
2018-04-13T18:01:43.974Z,23.67
2018-04-13T18:04:12.428Z,23.47
2018-04-13T18:06:41.308Z,21.30
2018-04-13T18:09:09.035Z,28.27
2018-04-13T18:11:43.677Z,30.90
2018-04-13T18:14:12.513Z,24.83
2018-04-13T18:16:40.250Z,25.90
2018-04-13T18:19:08.719Z,31.67
2018-04-13T18:21:58.501Z,24.07
2018-04-13T18:24:26.214Z,32.90
2018-04-13T18:27:04.696Z,23.70
2018-04-13T18:29:33.492Z,23.50
2018-04-13T18:32:02.008Z,21.50
2018-04-13T18:34:30.136Z,18.30
2018-04-13T18:37:21.052Z,42.30
2018-04-13T18:39:49.139Z,21.23
2018-04-13T18:42:17.379Z,20.10
2018-04-13T18:44:45.511Z,21.43
2018-04-13T18:47:23.736Z,17.30
2018-04-13T18:49:51.827Z,19.00
2018-04-13T18:52:20.542Z,18.73
2018-04-13T18:54:49.042Z,17.43
2018-04-13T18:57:23.685Z,20.97
2018-04-13T18:59:51.407Z,20.57
2018-04-13T19:02:22.604Z,19.97
2018-04-13T19:04:51.226Z,27.57
2018-04-13T19:07:26.972Z,16.00
2018-04-13T19:09:55.485Z,20.17
2018-04-13T19:12:24.029Z,19.27
2018-04-13T19:14:51.752Z,19.93
2018-04-13T19:17:28.297Z,21.77
2018-04-13T19:19:56.727Z,20.03
2018-04-13T19:22:47.007Z,23.23
2018-04-13T19:25:15.458Z,20.70
2018-04-13T19:28:06.385Z,24.60
2018-04-13T19:30:35.198Z,26.30
2018-04-13T19:33:03.921Z,29.83
2018-04-13T19:35:31.569Z,32.47
2018-04-13T19:38:14.419Z,28.50
2018-04-13T19:40:42.584Z,26.70
2018-04-13T19:43:12.017Z,29.93
2018-04-13T19:45:41.258Z,30.17
2018-04-13T19:51:15.350Z,31.93
2018-04-13T19:53:43.090Z,32.43
2018-04-13T19:56:18.049Z,34.90
2018-04-13T19:58:46.470Z,34.03
2018-04-13T20:01:33.463Z,37.63
2018-04-13T20:04:01.167Z,40.20
2018-04-13T20:06:35.725Z,40.30
2018-04-13T20:09:03.592Z,39.90
2018-04-13T20:11:48.953Z,43.87
2018-04-13T20:17:01.891Z,47.53
2018-04-13T20:19:35.732Z,48.30
2018-04-13T20:22:04.286Z,55.33
2018-04-13T20:24:35.542Z,53.57
2018-04-13T20:27:04.137Z,64.33
2018-04-13T20:29:38.365Z,67.07
2018-04-13T20:32:06.503Z,75.30
2018-04-13T20:34:34.562Z,61.90
2018-04-13T20:37:02.589Z,74.50
2018-04-13T20:39:31.152Z,72.50
2018-04-13T20:41:59.221Z,78.47
2018-04-13T20:44:29.840Z,85.57
2018-04-13T20:46:58.348Z,96.13
2018-04-13T20:49:31.373Z,91.60
2018-04-13T20:51:59.503Z,92.83
2018-04-13T20:54:31.892Z,107.60
2018-04-13T20:57:01.148Z,93.73
2018-04-13T20:59:32.321Z,98.80
2018-04-13T21:02:00.806Z,96.87
2018-04-13T21:04:29.495Z,97.10
2018-04-13T21:06:57.581Z,98.77
2018-04-13T21:09:27.679Z,93.30
2018-04-13T21:11:55.414Z,101.37
2018-04-13T21:14:24.134Z,105.43
2018-04-13T21:16:51.842Z,105.50
2018-04-13T21:19:20.591Z,116.30
2018-04-13T21:21:49.885Z,113.20
2018-04-13T21:24:19.311Z,112.83
2018-04-13T21:26:47.457Z,113.77
2018-04-13T21:29:19.613Z,115.83
2018-04-13T21:31:48.365Z,115.17
2018-04-13T21:34:28.672Z,129.03
2018-04-13T21:36:56.520Z,125.20
2018-04-13T21:39:27.109Z,129.73
2018-04-13T21:41:56.568Z,130.43
2018-04-13T21:44:28.474Z,133.53
2018-04-13T21:46:56.213Z,129.93
2018-04-13T21:49:39.428Z,130.97
2018-04-13T21:52:07.679Z,138.43
2018-04-13T21:54:50.030Z,129.60
2018-04-13T21:57:17.782Z,141.70
2018-04-13T21:59:47.260Z,127.07
2018-04-13T22:02:15.739Z,127.87
2018-04-13T22:04:43.467Z,127.07
2018-04-13T22:07:12.660Z,128.93
2018-04-13T22:09:40.398Z,129.00
2018-04-13T22:12:29.508Z,139.87
2018-04-13T22:14:57.215Z,136.37
2018-04-13T22:17:34.672Z,135.33
2018-04-13T22:20:03.192Z,130.00
2018-04-13T22:22:42.212Z,116.27
2018-04-13T22:25:09.958Z,105.70
2018-04-13T22:27:44.261Z,94.00
2018-04-13T22:30:12.742Z,88.27
2018-04-13T22:32:51.144Z,87.40
2018-04-13T22:35:19.310Z,83.93
2018-04-13T22:37:57.732Z,83.57
2018-04-13T22:40:26.205Z,85.27
2018-04-13T22:43:07.356Z,89.07
2018-04-13T22:45:35.891Z,82.03
2018-04-13T22:48:09.294Z,84.80
2018-04-13T22:50:37.078Z,82.23
2018-04-13T22:53:06.355Z,82.97
2018-04-13T22:55:34.068Z,79.10
2018-04-13T22:58:18.524Z,79.80
2018-04-13T23:00:46.607Z,80.20
2018-04-13T23:03:15.359Z,75.33
2018-04-13T23:05:43.837Z,86.00
2018-04-13T23:08:19.886Z,81.67
2018-04-13T23:10:47.633Z,80.30
2018-04-13T23:13:17.574Z,78.10
2018-04-13T23:15:46.596Z,79.67
2018-04-13T23:21:13.989Z,78.53
2018-04-13T23:23:42.977Z,75.90
2018-04-13T23:26:10.657Z,79.13
2018-04-13T23:28:39.104Z,73.30
2018-04-13T23:31:13.800Z,79.43
2018-04-13T23:33:41.545Z,79.37
2018-04-13T23:36:12.707Z,74.60
2018-04-13T23:38:40.382Z,87.70
2018-04-13T23:41:14.951Z,79.47
2018-04-13T23:43:43.002Z,85.10
2018-04-13T23:46:14.612Z,90.87
2018-04-13T23:48:43.071Z,91.60
2018-04-13T23:51:11.226Z,83.27
2018-04-13T23:53:39.706Z,79.10
2018-04-13T23:56:08.392Z,73.67
2018-04-13T23:58:36.107Z,81.27
